createdAt,value
2018-03-04T00:01:51.704Z,80.02
2018-03-04T00:04:19.110Z,80.04
2018-03-04T00:06:46.576Z,80.15
2018-03-04T00:09:13.972Z,80.19
2018-03-04T00:11:41.368Z,80.23
2018-03-04T00:14:09.059Z,80.19
2018-03-04T00:16:36.468Z,80.27
2018-03-04T00:19:03.873Z,80.25
2018-03-04T00:21:31.278Z,80.03
2018-03-04T00:23:58.977Z,80.05
2018-03-04T00:26:26.422Z,80.03
2018-03-04T00:28:53.869Z,79.99
2018-03-04T00:31:22.329Z,79.98
2018-03-04T00:33:49.768Z,79.67
2018-03-04T00:36:17.223Z,79.60
2018-03-04T00:38:44.674Z,79.43
2018-03-04T00:41:12.770Z,79.27
2018-03-04T00:43:40.300Z,79.24
2018-03-04T00:46:07.769Z,79.15
2018-03-04T00:48:35.410Z,79.02
2018-03-04T00:51:02.881Z,79.06
2018-03-04T00:53:30.312Z,78.77
2018-03-04T00:55:57.713Z,78.61
2018-03-04T00:58:25.193Z,78.92
2018-03-04T01:00:52.642Z,79.10
2018-03-04T01:03:20.053Z,79.30
2018-03-04T01:05:47.668Z,79.34
2018-03-04T01:08:15.110Z,79.65
2018-03-04T01:10:42.509Z,80.00
2018-03-04T01:13:09.959Z,80.58
2018-03-04T01:15:37.376Z,80.56
2018-03-04T01:18:04.849Z,80.13
2018-03-04T01:20:33.006Z,79.73
2018-03-04T01:23:00.394Z,79.65
2018-03-04T01:25:27.826Z,79.42
2018-03-04T01:27:55.207Z,79.14
2018-03-04T01:30:22.616Z,79.18
2018-03-04T01:32:50.806Z,79.06
2018-03-04T01:35:18.258Z,79.15
2018-03-04T01:37:45.905Z,79.16
2018-03-04T01:40:13.364Z,79.05
2018-03-04T01:42:40.810Z,78.81
2018-03-04T01:45:08.800Z,78.54
2018-03-04T01:47:36.238Z,78.28
2018-03-04T01:50:03.677Z,78.28
2018-03-04T01:52:31.346Z,78.77
2018-03-04T01:54:58.752Z,79.53
2018-03-04T01:57:26.185Z,79.70
2018-03-04T01:59:53.640Z,79.83
2018-03-04T02:02:21.086Z,80.08
2018-03-04T02:04:48.519Z,80.19
2018-03-04T02:07:15.960Z,80.49
2018-03-04T02:09:43.404Z,80.34
2018-03-04T02:12:10.838Z,80.80
2018-03-04T02:14:38.299Z,80.76
2018-03-04T02:17:05.751Z,81.03
2018-03-04T02:19:33.300Z,81.07
2018-03-04T02:22:00.757Z,80.91
2018-03-04T02:24:28.176Z,80.75
2018-03-04T02:26:55.627Z,80.92
2018-03-04T02:29:23.059Z,81.01
2018-03-04T02:31:50.488Z,80.84
2018-03-04T02:34:17.923Z,80.92
2018-03-04T02:36:45.307Z,81.16
2018-03-04T02:39:12.724Z,81.22
2018-03-04T02:41:40.170Z,81.56
2018-03-04T02:44:07.610Z,81.70
2018-03-04T02:46:35.024Z,81.51
2018-03-04T02:49:02.453Z,81.72
2018-03-04T02:51:29.854Z,81.63
2018-03-04T02:53:57.303Z,81.32
2018-03-04T02:56:24.741Z,81.26
2018-03-04T02:58:52.199Z,81.71
2018-03-04T03:01:19.662Z,81.95
2018-03-04T03:03:47.050Z,82.01
2018-03-04T03:06:14.459Z,82.17
2018-03-04T03:08:41.907Z,82.09
2018-03-04T03:11:09.303Z,82.21
2018-03-04T03:13:36.745Z,82.45
2018-03-04T03:16:04.177Z,82.30
2018-03-04T03:18:31.567Z,82.49
2018-03-04T03:20:59.225Z,82.57
2018-03-04T03:23:26.609Z,82.59
2018-03-04T03:25:54.010Z,82.69
2018-03-04T03:28:21.507Z,82.85
2018-03-04T03:30:48.945Z,82.78
2018-03-04T03:33:17.057Z,83.00
2018-03-04T03:35:44.476Z,83.14
2018-03-04T03:38:11.933Z,83.43
2018-03-04T03:40:39.335Z,83.88
2018-03-04T03:43:06.780Z,84.14
2018-03-04T03:45:34.190Z,84.35
2018-03-04T03:48:01.590Z,84.56
2018-03-04T03:50:30.228Z,84.33
2018-03-04T03:52:57.668Z,84.52
2018-03-04T03:55:25.099Z,84.87
2018-03-04T03:57:52.555Z,85.04
2018-03-04T04:00:20.011Z,85.08
2018-03-04T04:02:47.455Z,85.28
2018-03-04T04:05:14.894Z,84.98
2018-03-04T04:07:42.333Z,84.91
2018-03-04T04:10:09.760Z,84.90
2018-03-04T04:12:37.168Z,84.78
2018-03-04T04:15:04.608Z,84.63
2018-03-04T04:17:32.010Z,84.47
2018-03-04T04:19:59.595Z,84.24
2018-03-04T04:22:27.003Z,84.13
2018-03-04T04:24:54.404Z,84.06
2018-03-04T04:27:21.833Z,83.87
2018-03-04T04:29:50.251Z,83.88
2018-03-04T04:32:17.686Z,83.94
2018-03-04T04:34:45.105Z,84.00
2018-03-04T04:37:12.545Z,83.59
2018-03-04T04:39:39.974Z,83.34
2018-03-04T04:42:07.362Z,83.54
2018-03-04T04:44:34.805Z,83.50
2018-03-04T04:47:02.208Z,83.51
2018-03-04T04:49:29.692Z,83.42
2018-03-04T04:51:57.223Z,83.11
2018-03-04T04:54:24.642Z,82.84
2018-03-04T04:56:52.072Z,82.93
2018-03-04T04:59:19.753Z,82.94
2018-03-04T05:01:47.139Z,82.72
2018-03-04T05:04:14.541Z,82.68
2018-03-04T05:06:42.152Z,82.99
2018-03-04T05:09:09.532Z,83.17
2018-03-04T05:11:36.951Z,83.00
2018-03-04T05:14:04.380Z,83.12
2018-03-04T05:16:31.822Z,83.00
2018-03-04T05:18:59.473Z,82.92
2018-03-04T05:21:26.863Z,82.84
2018-03-04T05:23:54.335Z,82.88
2018-03-04T05:26:21.772Z,82.54
2018-03-04T05:28:49.222Z,82.50
2018-03-04T05:31:16.637Z,82.39
2018-03-04T05:33:44.032Z,82.15
2018-03-04T05:36:11.486Z,82.09
2018-03-04T05:38:38.876Z,81.83
2018-03-04T05:41:06.312Z,81.81
2018-03-04T05:43:33.717Z,81.90
2018-03-04T05:46:01.164Z,81.81
2018-03-04T05:48:28.599Z,81.73
2018-03-04T05:50:56.065Z,81.72
2018-03-04T05:53:23.492Z,81.64
2018-03-04T05:55:52.145Z,82.02
2018-03-04T05:58:19.590Z,81.99
2018-03-04T06:00:47.199Z,82.12
2018-03-04T06:03:14.826Z,82.59
2018-03-04T06:05:42.212Z,83.28
2018-03-04T06:08:09.612Z,83.40
2018-03-04T06:10:37.779Z,83.40
2018-03-04T06:13:05.171Z,83.03
2018-03-04T06:15:32.569Z,82.57
2018-03-04T06:17:59.976Z,82.58
2018-03-04T06:20:27.363Z,82.46
2018-03-04T06:22:54.805Z,82.27
2018-03-04T06:25:22.369Z,82.22
2018-03-04T06:27:49.812Z,82.07
2018-03-04T06:30:17.293Z,82.00
2018-03-04T06:32:44.725Z,81.83
2018-03-04T06:35:12.121Z,81.83
2018-03-04T06:37:40.459Z,82.14
2018-03-04T06:40:07.855Z,82.57
2018-03-04T06:42:35.284Z,82.77
2018-03-04T06:45:02.674Z,82.89
2018-03-04T06:47:31.061Z,83.00
2018-03-04T06:49:58.537Z,82.72
2018-03-04T06:52:26.451Z,82.45
2018-03-04T06:54:53.856Z,82.39
2018-03-04T06:57:21.267Z,82.22
2018-03-04T06:59:48.678Z,82.18
2018-03-04T07:02:16.070Z,81.65
2018-03-04T07:04:43.474Z,81.57
2018-03-04T07:07:10.851Z,81.65
2018-03-04T07:09:38.249Z,81.65
2018-03-04T07:12:05.997Z,81.60
2018-03-04T07:14:33.538Z,81.50
2018-03-04T07:17:00.982Z,81.38
2018-03-04T07:19:28.359Z,81.60
2018-03-04T07:21:55.808Z,82.06
2018-03-04T07:24:23.411Z,81.79
2018-03-04T07:26:51.054Z,81.66
2018-03-04T07:29:18.466Z,82.19
2018-03-04T07:31:45.857Z,82.26
2018-03-04T07:34:13.299Z,82.10
2018-03-04T07:36:40.768Z,82.00
2018-03-04T07:39:08.300Z,82.00
2018-03-04T07:41:35.696Z,81.66
2018-03-04T07:44:03.213Z,81.51
2018-03-04T07:46:30.656Z,81.63
2018-03-04T07:48:58.272Z,81.56
2018-03-04T07:51:25.674Z,81.08
2018-03-04T07:53:53.140Z,80.87
2018-03-04T07:56:20.780Z,80.89
2018-03-04T07:58:48.168Z,80.53
2018-03-04T08:01:15.580Z,81.17
2018-03-04T08:03:43.016Z,81.58
2018-03-04T08:06:10.469Z,81.36
2018-03-04T08:08:37.874Z,81.25
2018-03-04T08:11:05.413Z,80.83
2018-03-04T08:13:32.665Z,81.14
2018-03-04T08:16:00.091Z,81.17
2018-03-04T08:18:27.510Z,81.81
2018-03-04T08:20:55.016Z,81.43
2018-03-04T08:23:22.694Z,82.16
2018-03-04T08:25:50.121Z,82.25
2018-03-04T08:28:29.305Z,82.12
2018-03-04T08:30:56.679Z,82.45
2018-03-04T08:33:24.105Z,81.99
2018-03-04T08:35:51.490Z,82.06
2018-03-04T08:38:18.929Z,82.35
2018-03-04T08:40:46.400Z,81.90
2018-03-04T08:43:13.839Z,81.73
2018-03-04T08:45:41.273Z,80.76
2018-03-04T08:48:08.651Z,80.14
2018-03-04T08:50:36.281Z,80.18
2018-03-04T08:53:03.789Z,79.90
2018-03-04T08:55:31.254Z,79.84
2018-03-04T08:57:58.722Z,79.35
2018-03-04T09:00:27.187Z,79.65
2018-03-04T09:02:54.641Z,79.53
2018-03-04T09:05:22.118Z,79.91
2018-03-04T09:07:49.601Z,79.81
2018-03-04T09:10:17.078Z,79.75
2018-03-04T09:12:44.484Z,79.35
2018-03-04T09:15:11.876Z,79.47
2018-03-04T09:17:39.293Z,79.16
2018-03-04T09:20:06.706Z,78.45
2018-03-04T09:22:34.288Z,78.77
2018-03-04T09:25:01.670Z,78.43
2018-03-04T09:27:29.122Z,78.04
2018-03-04T09:29:57.468Z,78.22
2018-03-04T09:32:24.898Z,78.30
2018-03-04T09:34:52.314Z,78.10
2018-03-04T09:37:19.703Z,78.01
2018-03-04T09:39:47.145Z,77.55
2018-03-04T09:42:14.604Z,77.23
2018-03-04T09:44:42.001Z,77.37
2018-03-04T09:47:09.402Z,77.50
2018-03-04T09:49:36.845Z,77.53
2018-03-04T09:52:04.912Z,76.62
2018-03-04T09:54:32.401Z,76.34
2018-03-04T09:56:59.792Z,76.04
2018-03-04T09:59:27.196Z,76.33
2018-03-04T10:01:54.739Z,76.25
2018-03-04T10:04:22.156Z,76.66
2018-03-04T10:06:49.564Z,77.36
2018-03-04T10:09:17.013Z,77.67
2018-03-04T10:11:44.401Z,77.27
2018-03-04T10:14:11.841Z,77.44
2018-03-04T10:16:39.242Z,77.16
2018-03-04T10:19:06.727Z,76.42
2018-03-04T10:21:34.142Z,75.95
2018-03-04T10:24:01.540Z,75.79
2018-03-04T10:26:29.261Z,75.16
2018-03-04T10:28:56.688Z,74.76
2018-03-04T10:31:24.109Z,74.81
2018-03-04T10:33:51.500Z,75.27
2018-03-04T10:36:18.929Z,75.74
2018-03-04T10:38:46.389Z,75.82
2018-03-04T10:41:13.776Z,75.82
2018-03-04T10:43:41.195Z,75.09
2018-03-04T10:46:08.609Z,74.22
2018-03-04T10:48:36.043Z,73.98
2018-03-04T10:51:03.439Z,73.89
2018-03-04T10:53:31.135Z,74.45
2018-03-04T10:55:58.591Z,74.19
2018-03-04T10:58:26.007Z,74.08
2018-03-04T11:00:55.256Z,74.05
2018-03-04T11:03:23.362Z,73.85
2018-03-04T11:05:50.755Z,73.47
2018-03-04T11:08:18.214Z,73.76
2018-03-04T11:10:45.798Z,72.79
2018-03-04T11:13:13.237Z,71.95
2018-03-04T11:15:40.671Z,71.43
2018-03-04T11:18:08.097Z,71.01
2018-03-04T11:20:35.498Z,70.96
2018-03-04T11:23:02.925Z,70.81
2018-03-04T11:25:31.057Z,70.46
2018-03-04T11:27:58.461Z,70.35
2018-03-04T11:30:25.915Z,70.21
2018-03-04T11:32:53.305Z,70.02
2018-03-04T11:35:20.741Z,70.32
2018-03-04T11:37:48.203Z,70.44
2018-03-04T11:40:15.673Z,70.52
2018-03-04T11:42:43.158Z,70.26
2018-03-04T11:45:10.598Z,69.82
2018-03-04T11:47:37.994Z,69.62
2018-03-04T11:50:05.426Z,69.18
2018-03-04T11:52:32.844Z,68.21
2018-03-04T11:55:00.330Z,67.96
2018-03-04T11:57:28.644Z,67.81
2018-03-04T11:59:56.037Z,66.90
2018-03-04T12:02:23.557Z,66.36
2018-03-04T12:04:50.960Z,65.74
2018-03-04T12:07:18.909Z,65.10
2018-03-04T12:09:46.954Z,64.60
2018-03-04T12:12:14.390Z,64.21
2018-03-04T12:14:41.860Z,64.09
2018-03-04T12:17:09.299Z,65.45
2018-03-04T12:19:36.945Z,65.60
2018-03-04T12:22:04.342Z,65.36
2018-03-04T12:24:31.747Z,67.14
2018-03-04T12:26:59.186Z,66.92
2018-03-04T12:29:26.701Z,65.43
2018-03-04T12:31:54.140Z,64.68
2018-03-04T12:34:21.532Z,64.18
2018-03-04T12:36:48.936Z,63.80
2018-03-04T12:39:16.384Z,63.42
2018-03-04T12:41:43.802Z,62.54
2018-03-04T12:44:11.212Z,61.51
2018-03-04T12:46:39.452Z,59.92
2018-03-04T12:49:06.931Z,58.52
2018-03-04T12:51:34.369Z,61.04
2018-03-04T12:54:01.776Z,60.78
2018-03-04T12:56:29.307Z,59.57
2018-03-04T12:58:56.785Z,59.37
2018-03-04T13:01:24.353Z,59.48
2018-03-04T13:03:51.821Z,61.47
2018-03-04T13:06:19.310Z,61.73
2018-03-04T13:08:47.892Z,60.19
2018-03-04T13:11:15.316Z,59.38
2018-03-04T13:13:42.787Z,59.32
2018-03-04T13:16:10.227Z,59.08
2018-03-04T13:18:37.624Z,60.34
2018-03-04T13:21:05.034Z,61.10
2018-03-04T13:23:32.762Z,61.49
2018-03-04T13:26:00.197Z,61.91
2018-03-04T13:28:27.697Z,62.11
2018-03-04T13:30:55.120Z,62.01
2018-03-04T13:33:22.714Z,62.51
2018-03-04T13:35:50.914Z,62.37
2018-03-04T13:38:18.362Z,61.67
2018-03-04T13:40:46.455Z,61.37
2018-03-04T13:43:13.878Z,61.62
2018-03-04T13:45:41.298Z,61.42
2018-03-04T13:48:08.696Z,61.30
2018-03-04T13:50:36.096Z,60.95
2018-03-04T13:53:03.680Z,60.58
2018-03-04T13:55:31.153Z,60.57
2018-03-04T13:57:58.712Z,60.85
2018-03-04T14:00:26.106Z,61.26
2018-03-04T14:02:53.520Z,61.49
2018-03-04T14:05:21.133Z,61.32
2018-03-04T14:07:48.631Z,61.91
2018-03-04T14:10:16.038Z,62.20
2018-03-04T14:12:43.431Z,62.72
2018-03-04T14:15:10.845Z,62.62
2018-03-04T14:17:38.286Z,64.15
2018-03-04T14:20:06.049Z,64.24
2018-03-04T14:22:33.452Z,64.13
2018-03-04T14:25:00.854Z,65.24
2018-03-04T14:27:28.327Z,64.87
2018-03-04T14:29:55.806Z,63.85
2018-03-04T14:32:23.234Z,63.99
2018-03-04T14:34:50.623Z,64.72
2018-03-04T14:37:18.046Z,64.78
2018-03-04T14:39:45.503Z,65.22
2018-03-04T14:42:12.889Z,65.57
2018-03-04T14:44:40.340Z,65.59
2018-03-04T14:47:07.735Z,65.55
2018-03-04T14:49:35.128Z,65.25
2018-03-04T14:52:02.585Z,65.90
2018-03-04T14:54:30.147Z,66.06
2018-03-04T14:56:57.569Z,65.67
2018-03-04T14:59:24.972Z,65.07
2018-03-04T15:01:52.479Z,64.59
2018-03-04T15:04:19.894Z,64.52
2018-03-04T15:06:47.345Z,64.89
2018-03-04T15:09:14.777Z,65.86
2018-03-04T15:11:42.170Z,66.35
2018-03-04T15:14:09.604Z,66.41
2018-03-04T15:16:37.037Z,65.79
2018-03-04T15:19:04.795Z,65.50
2018-03-04T15:21:32.441Z,65.57
2018-03-04T15:23:59.842Z,65.88
2018-03-04T15:26:27.265Z,66.54
2018-03-04T15:28:54.931Z,67.11
2018-03-04T15:31:22.327Z,67.57
2018-03-04T15:33:50.145Z,67.17
2018-03-04T15:36:17.601Z,66.90
2018-03-04T15:38:45.059Z,67.14
2018-03-04T15:41:12.502Z,67.29
2018-03-04T15:43:39.928Z,68.05
2018-03-04T15:46:07.365Z,68.35
2018-03-04T15:48:34.761Z,68.93
2018-03-04T15:51:03.321Z,68.85
2018-03-04T15:53:30.764Z,68.37
2018-03-04T15:55:58.241Z,68.19
2018-03-04T15:58:26.280Z,67.95
2018-03-04T16:00:54.465Z,67.81
2018-03-04T16:03:21.984Z,67.81
2018-03-04T16:05:49.389Z,67.69
2018-03-04T16:08:16.817Z,67.67
2018-03-04T16:10:44.260Z,68.11
2018-03-04T16:13:11.659Z,68.06
2018-03-04T16:15:39.286Z,67.66
2018-03-04T16:18:06.880Z,67.35
2018-03-04T16:20:34.258Z,67.23
2018-03-04T16:23:01.710Z,67.42
2018-03-04T16:25:29.788Z,67.74
2018-03-04T16:27:57.341Z,68.21
2018-03-04T16:30:24.802Z,68.51
2018-03-04T16:32:52.199Z,68.10
2018-03-04T16:35:20.090Z,67.96
2018-03-04T16:37:47.530Z,68.26
2018-03-04T16:40:15.004Z,68.40
2018-03-04T16:42:42.412Z,68.39
2018-03-04T16:45:09.856Z,68.37
2018-03-04T16:47:37.711Z,68.83
2018-03-04T16:50:05.213Z,68.66
2018-03-04T16:52:32.808Z,69.07
2018-03-04T16:55:00.211Z,69.69
2018-03-04T16:57:27.688Z,70.00
2018-03-04T16:59:55.137Z,70.25
2018-03-04T17:02:22.527Z,70.69
2018-03-04T17:04:50.120Z,71.06
2018-03-04T17:07:17.524Z,71.06
2018-03-04T17:09:45.043Z,70.71
2018-03-04T17:12:13.885Z,70.33
2018-03-04T17:14:41.275Z,70.34
2018-03-04T17:17:08.676Z,70.48
2018-03-04T17:19:36.270Z,70.85
2018-03-04T17:22:03.674Z,70.74
2018-03-04T17:24:31.116Z,70.95
2018-03-04T17:26:58.591Z,71.53
2018-03-04T17:29:26.168Z,71.70
2018-03-04T17:31:53.570Z,72.22
2018-03-04T17:34:21.032Z,73.11
2018-03-04T17:36:48.572Z,73.31
2018-03-04T17:39:15.966Z,73.33
2018-03-04T17:41:43.382Z,73.17
2018-03-04T17:44:10.846Z,73.28
2018-03-04T17:46:38.800Z,73.87
2018-03-04T17:49:06.252Z,74.14
2018-03-04T17:51:33.742Z,74.55
2018-03-04T17:54:01.502Z,75.08
2018-03-04T17:56:28.892Z,75.92
2018-03-04T17:58:56.321Z,76.40
2018-03-04T18:01:23.786Z,76.54
2018-03-04T18:03:51.224Z,76.05
2018-03-04T18:06:18.624Z,75.91
2018-03-04T18:08:46.098Z,75.70
2018-03-04T18:11:13.528Z,75.74
2018-03-04T18:13:41.764Z,75.94
2018-03-04T18:16:09.224Z,76.26
2018-03-04T18:18:36.619Z,76.30
2018-03-04T18:21:04.789Z,76.12
2018-03-04T18:23:32.220Z,75.86
2018-03-04T18:25:59.621Z,76.09
2018-03-04T18:28:27.184Z,76.67
2018-03-04T18:30:54.667Z,76.77
2018-03-04T18:33:22.164Z,77.33
2018-03-04T18:35:49.732Z,77.41
2018-03-04T18:38:17.363Z,77.81
2018-03-04T18:40:44.745Z,78.17
2018-03-04T18:43:12.153Z,78.11
2018-03-04T18:45:39.548Z,78.03
2018-03-04T18:48:07.083Z,77.99
2018-03-04T18:50:34.484Z,77.82
2018-03-04T18:53:01.961Z,77.75
2018-03-04T18:55:29.365Z,78.06
2018-03-04T18:57:56.896Z,78.30
2018-03-04T19:00:24.325Z,77.99
2018-03-04T19:02:51.776Z,78.75
2018-03-04T19:05:19.203Z,79.21
2018-03-04T19:07:46.647Z,79.43
2018-03-04T19:10:14.097Z,79.74
2018-03-04T19:12:41.788Z,79.76
2018-03-04T19:15:09.273Z,79.89
2018-03-04T19:17:36.681Z,79.76
2018-03-04T19:20:04.132Z,79.90
2018-03-04T19:22:31.549Z,79.98
2018-03-04T19:24:58.961Z,80.75
2018-03-04T19:27:26.381Z,80.77
2018-03-04T19:29:53.775Z,80.85
2018-03-04T19:32:21.180Z,80.91
2018-03-04T19:34:48.588Z,80.84
2018-03-04T19:37:16.092Z,80.37
2018-03-04T19:39:43.484Z,80.09
2018-03-04T19:42:10.929Z,79.88
2018-03-04T19:44:38.342Z,79.75
2018-03-04T19:47:06.173Z,79.56
2018-03-04T19:49:33.599Z,79.41
2018-03-04T19:52:01.039Z,79.30
2018-03-04T19:54:28.682Z,79.09
2018-03-04T19:56:56.106Z,79.10
2018-03-04T19:59:23.551Z,79.43
2018-03-04T20:01:50.936Z,80.01
2018-03-04T20:04:18.334Z,80.48
2018-03-04T20:06:45.725Z,80.87
2018-03-04T20:09:13.225Z,81.21
2018-03-04T20:11:40.707Z,81.57
2018-03-04T20:14:08.174Z,81.62
2018-03-04T20:16:35.625Z,81.73
2018-03-04T20:19:03.026Z,81.69
2018-03-04T20:21:30.457Z,81.86
2018-03-04T20:23:57.877Z,81.73
2018-03-04T20:26:25.697Z,81.74
2018-03-04T20:28:53.184Z,81.84
2018-03-04T20:31:20.707Z,81.33
2018-03-04T20:33:48.159Z,81.24
2018-03-04T20:36:15.575Z,81.09
2018-03-04T20:38:43.013Z,81.02
2018-03-04T20:41:10.462Z,80.90
2018-03-04T20:43:37.905Z,80.62
2018-03-04T20:46:06.413Z,80.56
2018-03-04T20:48:33.881Z,80.56
2018-03-04T20:51:01.316Z,80.37
2018-03-04T20:53:28.840Z,80.34
2018-03-04T20:55:56.258Z,80.36
2018-03-04T20:58:23.734Z,79.94
2018-03-04T21:00:51.167Z,79.49
2018-03-04T21:03:18.640Z,79.34
2018-03-04T21:05:46.037Z,79.00
2018-03-04T21:08:13.442Z,78.78
2018-03-04T21:10:40.956Z,78.76
2018-03-04T21:13:08.468Z,78.57
2018-03-04T21:15:36.373Z,78.78
2018-03-04T21:18:03.811Z,79.40
2018-03-04T21:20:31.248Z,79.74
2018-03-04T21:22:58.808Z,79.71
2018-03-04T21:25:26.241Z,79.98
2018-03-04T21:27:53.623Z,80.11
2018-03-04T21:30:21.118Z,80.18
2018-03-04T21:32:48.579Z,80.09
2018-03-04T21:35:16.042Z,79.88
2018-03-04T21:37:43.469Z,80.00
2018-03-04T21:40:10.913Z,80.01
2018-03-04T21:42:38.845Z,79.81
2018-03-04T21:45:06.964Z,79.70
2018-03-04T21:47:34.439Z,79.57
2018-03-04T21:50:02.606Z,79.61
2018-03-04T21:52:30.057Z,79.74
2018-03-04T21:54:57.533Z,79.71
2018-03-04T21:57:24.953Z,79.46
2018-03-04T21:59:52.386Z,79.38
2018-03-04T22:02:19.906Z,79.38
2018-03-04T22:04:47.303Z,79.36
2018-03-04T22:07:14.797Z,79.44
2018-03-04T22:09:42.225Z,79.41
2018-03-04T22:12:10.666Z,79.25
2018-03-04T22:14:38.110Z,79.12
2018-03-04T22:17:05.553Z,79.12
2018-03-04T22:19:33.745Z,79.23
2018-03-04T22:22:01.147Z,79.40
2018-03-04T22:24:28.676Z,79.41
2018-03-04T22:26:56.085Z,79.12
2018-03-04T22:29:23.503Z,79.11
2018-03-04T22:31:50.895Z,79.22
2018-03-04T22:34:18.355Z,79.20
2018-03-04T22:36:45.760Z,79.15
2018-03-04T22:39:13.172Z,79.01
2018-03-04T22:41:40.556Z,79.03
2018-03-04T22:44:08.027Z,79.04
2018-03-04T22:46:35.478Z,79.04
2018-03-04T22:49:02.929Z,79.08
2018-03-04T22:51:30.394Z,79.11
2018-03-04T22:53:57.840Z,78.99
2018-03-04T22:56:25.466Z,78.98
2018-03-04T22:58:52.909Z,79.09
2018-03-04T23:01:20.336Z,79.29
2018-03-04T23:03:47.795Z,79.48
2018-03-04T23:06:15.236Z,79.49
2018-03-04T23:08:42.686Z,79.84
2018-03-04T23:11:10.199Z,79.87
2018-03-04T23:13:37.650Z,79.76
2018-03-04T23:16:05.363Z,79.65
2018-03-04T23:18:32.836Z,79.70
2018-03-04T23:21:00.489Z,79.98
2018-03-04T23:23:27.951Z,80.09
2018-03-04T23:25:55.394Z,80.18
2018-03-04T23:28:22.875Z,80.16
2018-03-04T23:30:50.326Z,80.24
2018-03-04T23:33:17.794Z,80.37
2018-03-04T23:35:45.187Z,80.16
2018-03-04T23:38:12.630Z,80.02
2018-03-04T23:40:40.036Z,80.05
2018-03-04T23:43:07.556Z,80.21
2018-03-04T23:45:34.966Z,80.15
2018-03-04T23:48:03.519Z,80.17
2018-03-04T23:50:30.947Z,80.00
2018-03-04T23:52:59.333Z,80.06
2018-03-04T23:55:26.759Z,80.14
2018-03-04T23:57:54.199Z,80.09
